Time;durP1;ratioP1;P1;durP2;ratioP2;P2;SDS_P1;SDS_P2;PMS_P1;PMS_P2;Temp;Humidity;BMP_temperature;BMP_pressure;BME280_temperature;BME280_humidity;BME280_pressure;Samples;Min_cycle;Max_cycle;Signal;HPM_P1;HPM_P2
2021/07/27 00:02:22;;;;;;;12.05;10.32;;;;;;;18.91;96.94;100377.69;5044615;28;20044;-80
2021/07/27 00:04:48;;;;;;;11.88;10.13;;;;;;;18.92;96.62;100368.69;5047074;28;20129;-79
2021/07/27 00:07:15;;;;;;;11.98;10.23;;;;;;;18.94;96.04;100369.50;5065528;28;20501;-79
2021/07/27 00:09:41;;;;;;;12.73;11.40;;;;;;;18.90;96.08;100363.44;5046198;28;20041;-79
2021/07/27 00:12:08;;;;;;;12.25;10.85;;;;;;;18.89;96.11;100361.72;5033741;28;20489;-79
2021/07/27 00:14:35;;;;;;;12.63;11.23;;;;;;;18.88;95.93;100362.69;5034996;28;20509;-78
2021/07/27 00:17:02;;;;;;;11.73;10.52;;;;;;;18.79;96.85;100361.41;5047593;28;20037;-80
2021/07/27 00:19:29;;;;;;;12.02;10.45;;;;;;;18.72;97.00;100372.56;5032954;28;20093;-78
2021/07/27 00:21:55;;;;;;;13.80;10.48;;;;;;;18.67;96.99;100370.19;5050314;28;20029;-78
2021/07/27 00:24:26;;;;;;;13.40;10.63;;;;;;;18.59;97.47;100369.75;5031405;28;20139;-80
2021/07/27 00:26:54;;;;;;;11.75;10.43;;;;;;;18.59;97.84;100376.91;5033758;28;20063;-78
2021/07/27 00:29:22;;;;;;;12.30;10.75;;;;;;;18.55;97.66;100382.41;5033127;28;20044;-78
2021/07/27 00:31:49;;;;;;;11.95;10.48;;;;;;;18.56;97.42;100378.78;5016086;28;21869;-78
2021/07/27 00:34:17;;;;;;;12.38;10.77;;;;;;;18.58;97.34;100373.34;5027695;28;20040;-79
2021/07/27 00:36:44;;;;;;;14.25;11.60;;;;;;;18.50;97.82;100378.28;5050082;28;20127;-78
2021/07/27 00:39:11;;;;;;;11.35;10.13;;;;;;;18.39;98.90;100372.69;5030384;28;20090;-81
2021/07/27 00:41:38;;;;;;;11.43;10.02;;;;;;;18.39;98.98;100370.88;5049377;28;20040;-80
2021/07/27 00:44:06;;;;;;;11.18;10.02;;;;;;;18.35;98.86;100360.44;5091797;23;20433;-81
2021/07/27 00:46:33;;;;;;;13.27;10.85;;;;;;;18.32;99.04;100361.47;5002400;28;20718;-82
2021/07/27 00:49:00;;;;;;;12.85;10.98;;;;;;;18.30;99.80;100355.34;5026055;28;20056;-81
2021/07/27 00:51:28;;;;;;;12.02;10.65;;;;;;;18.20;99.80;100360.38;4990576;28;20574;-81
2021/07/27 00:53:55;;;;;;;12.23;10.73;;;;;;;18.19;99.75;100355.97;4975435;28;20115;-81
2021/07/27 00:56:22;;;;;;;12.38;10.82;;;;;;;18.20;99.14;100356.84;4970271;28;20047;-81
2021/07/27 00:58:49;;;;;;;13.73;10.23;;;;;;;18.07;100.00;100353.97;4990054;28;20053;-81
2021/07/27 01:01:15;;;;;;;16.58;11.02;;;;;;;18.06;99.78;100368.28;4964757;28;20109;-81
2021/07/27 01:03:42;;;;;;;11.90;10.68;;;;;;;17.95;100.00;100368.91;4973543;28;20406;-81
2021/07/27 01:06:09;;;;;;;14.38;11.43;;;;;;;18.02;99.77;100361.41;4989464;28;20674;-81
2021/07/27 01:08:37;;;;;;;14.65;11.90;;;;;;;18.05;100.00;100355.00;4958155;28;20045;-80
2021/07/27 01:11:04;;;;;;;12.30;11.00;;;;;;;18.01;100.00;100359.69;4973474;28;20093;-80
2021/07/27 01:13:30;;;;;;;13.40;11.05;;;;;;;17.93;100.00;100354.75;4989538;28;20560;-80
2021/07/27 01:16:03;;;;;;;12.45;11.10;;;;;;;17.78;100.00;100370.78;4969646;28;20050;-81
2021/07/27 01:18:33;;;;;;;12.57;10.95;;;;;;;17.65;100.00;100373.22;4972249;28;20069;-80
2021/07/27 01:37:29;;;;;;;13.30;11.25;;;;;;;17.63;100.00;100367.94;4975233;28;20173;-80
2021/07/27 01:40:29;;;;;;;13.82;11.30;;;;;;;17.44;100.00;100372.56;4976994;28;20046;-81
2021/07/27 01:42:56;;;;;;;13.50;10.98;;;;;;;17.40;100.00;100376.34;4974519;28;20050;-81
2021/07/27 01:45:22;;;;;;;14.07;12.07;;;;;;;17.35;100.00;100373.94;4994153;28;20662;-81
2021/07/27 01:47:49;;;;;;;14.00;11.88;;;;;;;17.38;100.00;100373.75;4977918;28;20038;-81
2021/07/27 01:50:16;;;;;;;12.93;11.63;;;;;;;17.42;100.00;100380.66;4992036;28;20038;-82
2021/07/27 01:52:47;;;;;;;16.67;12.23;;;;;;;17.34;100.00;100377.53;4978729;28;20045;-81
2021/07/27 01:55:16;;;;;;;14.77;12.60;;;;;;;17.22;100.00;100375.50;4995170;28;20542;-81
2021/07/27 01:57:43;;;;;;;13.73;12.27;;;;;;;17.16;100.00;100375.84;4986654;28;20053;-81
2021/07/27 02:00:10;;;;;;;13.75;12.05;;;;;;;17.17;100.00;100374.91;4976236;28;20092;-81
2021/07/27 02:02:37;;;;;;;14.48;12.18;;;;;;;17.16;100.00;100376.72;4954192;28;20041;-81
2021/07/27 02:05:07;;;;;;;12.27;11.02;;;;;;;17.10;100.00;100374.34;4994667;28;20046;-81
2021/07/27 02:07:38;;;;;;;13.80;12.02;;;;;;;17.18;100.00;100384.63;4960600;28;20049;-81
2021/07/27 02:10:07;;;;;;;14.65;12.60;;;;;;;17.09;100.00;100382.44;4993256;28;20049;-81
2021/07/27 02:12:39;;;;;;;13.05;11.35;;;;;;;17.05;100.00;100387.06;4994494;28;20041;-82
2021/07/27 02:15:07;;;;;;;12.18;9.75;;;;;;;16.98;100.00;100390.13;4990541;28;20048;-81
2021/07/27 02:17:34;;;;;;;14.23;10.93;;;;;;;16.95;100.00;100380.47;5012109;28;20041;-81
2021/07/27 02:20:03;;;;;;;11.90;10.63;;;;;;;16.96;100.00;100386.66;4978666;28;20069;-81
2021/07/27 02:22:34;;;;;;;14.18;12.25;;;;;;;16.96;100.00;100387.53;4978313;28;20053;-81
2021/07/27 02:25:01;;;;;;;12.73;11.38;;;;;;;16.96;100.00;100384.00;4976707;28;20050;-81
2021/07/27 02:27:28;;;;;;;13.48;11.43;;;;;;;16.96;100.00;100384.88;4978868;28;20050;-81
2021/07/27 02:29:56;;;;;;;13.32;11.23;;;;;;;16.92;100.00;100382.44;4994366;28;20054;-80
2021/07/27 02:32:23;;;;;;;12.30;10.57;;;;;;;16.88;100.00;100379.91;4993161;28;20038;-81
2021/07/27 02:34:51;;;;;;;12.90;10.88;;;;;;;16.93;100.00;100381.50;4977347;28;20145;-81
2021/07/27 02:37:17;;;;;;;12.38;10.82;;;;;;;16.91;100.00;100383.38;4960391;28;20034;-82
2021/07/27 02:39:44;;;;;;;15.27;12.57;;;;;;;16.96;100.00;100379.53;4979705;28;20068;-81
2021/07/27 02:42:11;;;;;;;14.00;11.48;;;;;;;16.98;100.00;100369.63;4978145;28;20064;-80
2021/07/27 02:44:37;;;;;;;14.18;11.55;;;;;;;16.98;100.00;100379.44;4997715;28;20048;-81
2021/07/27 02:47:04;;;;;;;13.77;11.27;;;;;;;16.89;100.00;100381.63;4979183;28;20037;-82
2021/07/27 02:49:31;;;;;;;15.88;11.05;;;;;;;16.84;100.00;100378.34;4977464;28;20039;-80
2021/07/27 02:51:59;;;;;;;12.60;11.10;;;;;;;16.82;100.00;100374.06;4975649;28;20046;-80
2021/07/27 02:54:28;;;;;;;14.80;11.63;;;;;;;16.79;100.00;100380.38;4998401;28;20690;-81
2021/07/27 02:56:56;;;;;;;13.07;11.10;;;;;;;16.78;100.00;100377.81;4977070;28;20686;-79
2021/07/27 02:59:23;;;;;;;12.00;10.52;;;;;;;16.77;100.00;100389.41;4995203;28;20034;-81
2021/07/27 03:01:50;;;;;;;13.15;11.15;;;;;;;16.79;100.00;100387.53;5006651;28;20048;-81
2021/07/27 03:04:17;;;;;;;12.82;10.10;;;;;;;16.84;100.00;100377.50;4992187;28;20550;-81
2021/07/27 03:06:46;;;;;;;13.32;11.20;;;;;;;16.87;100.00;100372.84;4995636;28;20046;-80
2021/07/27 03:09:18;;;;;;;12.90;11.18;;;;;;;16.95;100.00;100372.47;4978337;28;20042;-81
2021/07/27 03:11:45;;;;;;;13.32;10.90;;;;;;;16.91;100.00;100367.38;4967878;28;20041;-80
2021/07/27 03:14:12;;;;;;;12.30;10.82;;;;;;;16.78;100.00;100367.13;4962835;28;20479;-80
2021/07/27 03:16:38;;;;;;;13.38;11.35;;;;;;;16.85;100.00;100366.75;4960473;28;20038;-82
2021/07/27 03:19:05;;;;;;;13.40;10.70;;;;;;;16.86;100.00;100359.59;4994808;28;20049;-80
2021/07/27 03:21:32;;;;;;;12.10;10.80;;;;;;;16.85;100.00;100357.88;5008129;28;20046;-81
2021/07/27 03:23:59;;;;;;;12.77;11.38;;;;;;;16.80;100.00;100347.41;4992296;28;20077;-81
2021/07/27 03:26:26;;;;;;;12.15;10.68;;;;;;;16.78;100.00;100357.31;4987904;28;20042;-79
2021/07/27 03:28:53;;;;;;;14.45;11.45;;;;;;;16.72;100.00;100352.28;4991186;28;20048;-82
2021/07/27 03:31:20;;;;;;;11.75;10.43;;;;;;;16.71;100.00;100355.91;4989027;28;20038;-82
2021/07/27 03:33:47;;;;;;;11.85;10.05;;;;;;;16.72;100.00;100356.75;4956676;28;20085;-81
2021/07/27 03:36:14;;;;;;;11.60;10.10;;;;;;;16.75;100.00;100354.81;4988546;28;20061;-81
2021/07/27 03:38:40;;;;;;;11.45;10.25;;;;;;;16.76;100.00;100359.22;4968748;28;20474;-81
2021/07/27 03:41:09;;;;;;;12.73;10.70;;;;;;;16.79;100.00;100367.03;4990467;28;20045;-81
2021/07/27 03:43:37;;;;;;;10.60;9.52;;;;;;;16.82;100.00;100366.03;4976367;28;20037;-81
2021/07/27 03:46:04;;;;;;;14.70;11.77;;;;;;;16.83;100.00;100379.31;4973724;28;20041;-81
2021/07/27 03:48:31;;;;;;;14.10;10.25;;;;;;;16.83;100.00;100375.78;4991386;28;20092;-82
2021/07/27 03:50:57;;;;;;;11.13;9.85;;;;;;;16.89;100.00;100375.44;4958704;28;20033;-81
2021/07/27 03:53:25;;;;;;;12.82;10.30;;;;;;;16.93;100.00;100382.38;4975770;28;20155;-81
2021/07/27 03:55:52;;;;;;;12.93;11.15;;;;;;;16.97;100.00;100380.38;4974767;28;20049;-81
2021/07/27 03:58:19;;;;;;;11.93;10.50;;;;;;;16.97;100.00;100388.38;4975196;28;20054;-81
2021/07/27 04:00:47;;;;;;;11.55;9.70;;;;;;;16.98;100.00;100398.13;4990139;28;20056;-81
2021/07/27 04:03:14;;;;;;;11.93;10.05;;;;;;;16.99;100.00;100391.88;4955897;28;20066;-81
2021/07/27 04:05:43;;;;;;;12.45;10.02;;;;;;;17.05;100.00;100391.53;4974724;28;20458;-81
2021/07/27 04:08:10;;;;;;;12.63;10.48;;;;;;;17.08;100.00;100394.94;4963568;28;20578;-81
2021/07/27 04:10:36;;;;;;;12.60;9.30;;;;;;;17.07;100.00;100400.34;4954514;28;20046;-81
2021/07/27 04:13:03;;;;;;;12.32;9.48;;;;;;;17.09;100.00;100398.47;4990760;28;20045;-81
2021/07/27 04:15:30;;;;;;;11.48;9.43;;;;;;;17.11;100.00;100407.25;4965173;28;20045;-81
2021/07/27 04:17:56;;;;;;;12.07;9.73;;;;;;;17.15;100.00;100403.44;5009810;28;20099;-81
2021/07/27 04:20:23;;;;;;;10.70;9.35;;;;;;;17.17;100.00;100409.59;5004692;28;20977;-80
2021/07/27 04:22:49;;;;;;;13.40;10.18;;;;;;;17.17;100.00;100404.25;4974419;28;20495;-81
2021/07/27 04:25:16;;;;;;;11.75;9.45;;;;;;;17.24;100.00;100400.34;4989670;28;20065;-81
2021/07/27 04:27:43;;;;;;;10.15;9.05;;;;;;;17.26;100.00;100403.78;4975623;28;20050;-81
2021/07/27 04:30:09;;;;;;;12.40;10.15;;;;;;;17.31;100.00;100408.88;4974774;28;20060;-81
2021/07/27 04:32:36;;;;;;;12.02;9.52;;;;;;;17.36;100.00;100406.84;4963947;28;20129;-81
2021/07/27 04:35:08;;;;;;;12.50;9.32;;;;;;;17.35;100.00;100413.13;4991941;28;20065;-80
2021/07/27 04:37:34;;;;;;;12.40;9.50;;;;;;;17.39;100.00;100410.19;4975484;28;20053;-81
2021/07/27 04:40:01;;;;;;;11.02;9.43;;;;;;;17.41;100.00;100413.66;4973720;28;20053;-82
2021/07/27 04:42:28;;;;;;;12.02;9.15;;;;;;;17.46;100.00;100408.06;4972134;28;20042;-80
2021/07/27 04:44:54;;;;;;;13.10;9.30;;;;;;;17.48;100.00;100410.66;4974914;28;20089;-81
2021/07/27 04:47:22;;;;;;;10.02;8.95;;;;;;;17.51;100.00;100408.69;4988308;28;20096;-80
2021/07/27 04:49:49;;;;;;;10.80;8.98;;;;;;;17.53;100.00;100411.28;4991501;28;20553;-81
2021/07/27 04:52:20;;;;;;;10.80;8.98;;;;;;;17.56;100.00;100419.13;4966140;28;20049;-81
2021/07/27 04:54:51;;;;;;;10.25;8.75;;;;;;;17.64;100.00;100415.09;4965689;28;20039;-81
2021/07/27 04:57:18;;;;;;;11.75;9.48;;;;;;;17.61;100.00;100412.59;4988057;28;20049;-81
2021/07/27 04:59:45;;;;;;;11.48;9.50;;;;;;;17.64;100.00;100416.91;4990759;28;20164;-80
2021/07/27 05:02:11;;;;;;;9.55;8.38;;;;;;;17.71;100.00;100415.66;4990253;28;20038;-80
2021/07/27 05:04:38;;;;;;;9.80;8.80;;;;;;;17.69;100.00;100414.88;4973109;28;20061;-81
2021/07/27 05:07:05;;;;;;;10.15;8.27;;;;;;;17.77;100.00;100419.81;4972554;28;20042;-81
2021/07/27 05:09:32;;;;;;;10.32;8.43;;;;;;;17.78;100.00;100427.75;4960871;28;20446;-80
2021/07/27 05:11:58;;;;;;;11.82;8.98;;;;;;;17.81;100.00;100434.72;4973772;28;20045;-80
2021/07/27 05:14:25;;;;;;;14.75;9.48;;;;;;;17.86;100.00;100432.69;4975020;28;20030;-80
2021/07/27 05:16:52;;;;;;;11.48;9.05;;;;;;;17.89;100.00;100424.50;4989587;28;20052;-81
2021/07/27 05:19:19;;;;;;;9.60;8.40;;;;;;;17.95;100.00;100430.38;4970959;28;20450;-81
2021/07/27 05:21:46;;;;;;;10.95;9.77;;;;;;;18.00;100.00;100428.31;4994275;28;20042;-81
2021/07/27 05:24:12;;;;;;;9.27;8.07;;;;;;;18.07;100.00;100436.84;4991333;28;20038;-81
2021/07/27 05:26:42;;;;;;;9.85;8.27;;;;;;;18.19;100.00;100435.31;4963184;28;20050;-81
2021/07/27 05:29:08;;;;;;;9.60;7.72;;;;;;;18.34;100.00;100439.81;4994849;28;20045;-81
2021/07/27 05:31:37;;;;;;;11.27;8.15;;;;;;;18.52;100.00;100438.78;4978548;28;20103;-81
2021/07/27 05:34:04;;;;;;;9.73;7.57;;;;;;;18.72;100.00;100432.31;4976606;28;20042;-81
2021/07/27 05:36:30;;;;;;;10.90;7.43;;;;;;;18.96;100.00;100434.50;4996198;28;20056;-82
2021/07/27 05:38:57;;;;;;;7.75;6.95;;;;;;;19.12;100.00;100429.97;5008069;28;20041;-81
2021/07/27 05:41:24;;;;;;;10.40;7.32;;;;;;;19.41;99.10;100436.25;4997653;28;20046;-80
2021/07/27 05:43:51;;;;;;;7.97;6.13;;;;;;;19.52;98.70;100436.47;4976482;28;20130;-81
2021/07/27 05:46:17;;;;;;;8.63;6.95;;;;;;;19.68;96.28;100434.63;4969027;28;20104;-82
2021/07/27 05:48:46;;;;;;;8.10;6.72;;;;;;;19.84;96.47;100430.97;4991670;28;20045;-81
2021/07/27 05:51:14;;;;;;;8.35;6.07;;;;;;;20.03;91.69;100442.28;4993981;28;20122;-83
2021/07/27 05:53:42;;;;;;;8.63;6.13;;;;;;;20.06;91.51;100439.38;4995032;28;20057;-82
2021/07/27 05:56:08;;;;;;;7.28;6.13;;;;;;;20.13;91.34;100437.19;4994794;28;20038;-82
2021/07/27 05:58:35;;;;;;;7.72;5.88;;;;;;;20.13;91.52;100437.19;4978818;28;20053;-82
2021/07/27 06:01:01;;;;;;;8.80;6.28;;;;;;;20.20;91.53;100439.38;4976285;28;20568;-82
2021/07/27 06:03:28;;;;;;;7.50;6.20;;;;;;;20.32;91.43;100442.22;5006417;28;20120;-82
2021/07/27 06:05:55;;;;;;;7.18;6.13;;;;;;;20.47;90.48;100435.91;4976631;28;20042;-81
2021/07/27 06:08:22;;;;;;;8.27;6.20;;;;;;;21.12;87.42;100441.41;4994899;28;20046;-81
2021/07/27 06:10:48;;;;;;;7.88;6.32;;;;;;;21.73;82.64;100439.88;5008883;28;20049;-81
2021/07/27 06:13:15;;;;;;;6.95;5.90;;;;;;;22.19;78.90;100428.56;4961451;28;20045;-81
2021/07/27 06:15:41;;;;;;;7.53;5.95;;;;;;;23.27;72.44;100431.22;4992220;28;20072;-81
2021/07/27 06:18:08;;;;;;;8.18;5.60;;;;;;;24.17;68.07;100433.22;4979261;28;20365;-81
2021/07/27 06:20:35;;;;;;;6.85;5.25;;;;;;;24.56;65.05;100437.25;5005419;28;20046;-81
2021/07/27 06:23:01;;;;;;;5.20;4.70;;;;;;;24.88;64.09;100432.69;4991129;28;20041;-80
2021/07/27 06:25:28;;;;;;;7.78;6.00;;;;;;;24.91;60.60;100437.00;4978987;28;20561;-81
2021/07/27 06:27:55;;;;;;;10.38;5.82;;;;;;;24.99;62.79;100434.50;4999787;28;20634;-80
2021/07/27 06:30:21;;;;;;;6.57;5.00;;;;;;;25.07;62.01;100436.59;4978085;28;20108;-81
2021/07/27 06:32:48;;;;;;;5.65;4.80;;;;;;;25.52;60.54;100443.47;4976534;28;20043;-81
2021/07/27 06:35:15;;;;;;;6.38;5.10;;;;;;;25.82;57.13;100441.84;5001033;28;20167;-81
2021/07/27 06:37:41;;;;;;;6.18;4.90;;;;;;;26.18;57.10;100445.84;4990204;28;20104;-82
2021/07/27 06:40:09;;;;;;;6.28;5.53;;;;;;;26.17;56.79;100438.72;4978522;28;20096;-82
2021/07/27 06:42:35;;;;;;;7.35;5.10;;;;;;;25.61;60.08;100452.63;4997228;28;20092;-81
2021/07/27 06:45:02;;;;;;;7.45;5.10;;;;;;;26.02;59.90;100448.19;4987656;28;20490;-81
2021/07/27 06:47:29;;;;;;;5.40;4.90;;;;;;;25.71;58.89;100453.59;5009519;28;20129;-81
2021/07/27 06:49:56;;;;;;;7.18;5.45;;;;;;;25.82;58.48;100449.97;4994002;28;20061;-81
2021/07/27 06:52:22;;;;;;;7.10;5.65;;;;;;;25.68;59.28;100450.28;4971244;28;20142;-82
2021/07/27 06:54:49;;;;;;;6.15;5.20;;;;;;;25.63;58.91;100438.97;5076689;23;20385;-82
2021/07/27 06:57:16;;;;;;;6.18;5.13;;;;;;;25.75;59.50;100443.38;5005929;28;20445;-82
2021/07/27 06:59:43;;;;;;;5.88;5.00;;;;;;;25.86;60.33;100454.09;5001786;28;20520;-82
2021/07/27 07:02:09;;;;;;;6.65;5.45;;;;;;;25.90;59.59;100454.72;4995572;28;20045;-82
2021/07/27 07:04:36;;;;;;;6.38;5.20;;;;;;;25.96;58.82;100451.44;4996286;28;20140;-81
2021/07/27 07:07:06;;;;;;;6.28;4.72;;;;;;;25.91;57.66;100454.56;4979365;28;20050;-82
2021/07/27 07:09:33;;;;;;;6.20;5.43;;;;;;;26.00;58.50;100450.19;4975625;28;20041;-82
2021/07/27 07:12:00;;;;;;;6.97;4.90;;;;;;;26.13;59.09;100453.50;4996613;28;20663;-81
2021/07/27 07:14:26;;;;;;;5.40;4.60;;;;;;;26.22;57.63;100447.25;4990321;28;20042;-83
2021/07/27 07:16:53;;;;;;;5.20;4.38;;;;;;;26.30;56.42;100458.28;4985554;28;20529;-81
2021/07/27 07:19:20;;;;;;;5.72;5.07;;;;;;;26.52;57.38;100459.09;4980362;28;20069;-80
2021/07/27 07:21:46;;;;;;;5.75;4.82;;;;;;;26.52;56.98;100457.25;5006135;28;20107;-83
2021/07/27 07:24:13;;;;;;;6.07;4.00;;;;;;;26.65;56.23;100460.56;4971585;28;20454;-82
2021/07/27 07:26:40;;;;;;;4.75;3.72;;;;;;;26.72;55.45;100460.84;4980814;28;20048;-82
2021/07/27 07:29:06;;;;;;;3.85;3.45;;;;;;;26.89;55.24;100462.84;4979433;28;20050;-82
2021/07/27 07:31:34;;;;;;;4.13;3.60;;;;;;;26.92;51.17;100456.31;5006062;28;20056;-81
2021/07/27 07:34:00;;;;;;;4.05;3.60;;;;;;;27.00;51.13;100461.03;4994442;28;20044;-81
2021/07/27 07:36:27;;;;;;;3.72;3.30;;;;;;;27.15;52.08;100463.19;5015066;28;20052;-81
2021/07/27 07:38:54;;;;;;;4.15;3.20;;;;;;;27.18;51.41;100462.06;4979724;28;20041;-81
2021/07/27 07:41:20;;;;;;;5.75;3.35;;;;;;;27.23;49.68;100458.91;4990515;28;20040;-81
2021/07/27 07:43:49;;;;;;;5.15;3.53;;;;;;;27.28;51.81;100460.19;4984691;28;20052;-81
2021/07/27 07:46:16;;;;;;;4.25;3.53;;;;;;;27.29;50.56;100463.78;4993838;28;20039;-81
2021/07/27 07:48:42;;;;;;;4.45;3.60;;;;;;;27.27;51.29;100471.19;5003651;28;20044;-81
2021/07/27 07:51:09;;;;;;;5.00;3.50;;;;;;;27.19;50.32;100463.78;4973687;28;20045;-82
2021/07/27 07:53:35;;;;;;;4.03;2.80;;;;;;;27.18;49.64;100467.50;4991423;28;20577;-84
2021/07/27 07:56:08;;;;;;;4.50;3.30;;;;;;;27.23;47.96;100464.34;4982452;28;20049;-80
2021/07/27 07:58:34;;;;;;;3.20;2.90;;;;;;;27.48;49.47;100455.59;4982801;28;20045;-80
2021/07/27 08:01:01;;;;;;;4.72;3.25;;;;;;;27.65;50.37;100467.56;4980010;28;20049;-81
2021/07/27 08:03:28;;;;;;;3.90;2.97;;;;;;;27.81;50.11;100467.84;5014296;28;20049;-82
2021/07/27 08:05:56;;;;;;;5.22;2.90;;;;;;;27.91;48.92;100465.09;4971115;28;20045;-83
2021/07/27 08:08:23;;;;;;;4.95;3.35;;;;;;;27.84;49.05;100459.44;4996021;28;20041;-81
2021/07/27 08:10:49;;;;;;;4.40;3.35;;;;;;;27.76;47.79;100451.16;5005068;28;20041;-82
2021/07/27 08:13:16;;;;;;;4.05;3.22;;;;;;;27.35;49.60;100444.22;4970657;28;20064;-84
2021/07/27 08:15:45;;;;;;;3.90;3.50;;;;;;;27.25;48.19;100454.22;4985996;28;20038;-81
2021/07/27 08:18:12;;;;;;;5.18;3.90;;;;;;;27.04;49.69;100451.63;4991535;28;20126;-84
2021/07/27 08:20:39;;;;;;;4.00;3.60;;;;;;;27.30;50.66;100457.34;5007689;28;20041;-81
2021/07/27 08:23:05;;;;;;;4.20;3.50;;;;;;;27.66;51.19;100462.06;5012816;28;20056;-81
2021/07/27 08:25:32;;;;;;;4.15;3.58;;;;;;;27.67;50.29;100466.47;4992989;28;20045;-82
2021/07/27 08:27:59;;;;;;;4.32;3.35;;;;;;;27.75;51.01;100463.88;5010812;28;20482;-82
2021/07/27 08:30:25;;;;;;;4.43;3.72;;;;;;;27.96;50.51;100460.94;4977606;28;20099;-81
2021/07/27 08:32:53;;;;;;;4.32;3.53;;;;;;;28.11;50.50;100458.63;4997810;28;20458;-81
2021/07/27 08:35:21;;;;;;;4.18;3.60;;;;;;;28.07;51.26;100450.91;4994384;28;20038;-81
2021/07/27 08:37:49;;;;;;;4.65;4.20;;;;;;;28.19;50.51;100453.28;4994224;28;20045;-81
2021/07/27 08:40:17;;;;;;;4.20;3.78;;;;;;;28.24;50.46;100452.81;4989032;28;20044;-81
2021/07/27 08:42:45;;;;;;;7.65;4.22;;;;;;;28.26;49.51;100454.41;5008336;28;20049;-81
2021/07/27 08:45:12;;;;;;;5.60;4.25;;;;;;;28.33;48.49;100449.22;4989992;28;20042;-81
2021/07/27 08:47:47;;;;;;;5.18;4.30;;;;;;;28.40;49.24;100447.63;5020904;28;20568;-82
2021/07/27 08:50:14;;;;;;;4.40;3.60;;;;;;;28.31;48.28;100440.38;4976260;28;20633;-81
2021/07/27 08:52:41;;;;;;;4.57;3.70;;;;;;;28.50;49.56;100450.28;4994102;28;20634;-84
2021/07/27 08:55:09;;;;;;;6.13;5.00;;;;;;;28.60;48.90;100451.09;4989333;28;20033;-81
2021/07/27 08:57:53;;;;;;;5.00;3.88;;;;;;;28.68;49.26;100453.06;4993415;28;20048;-81
2021/07/27 09:00:20;;;;;;;;;;;;;;;28.63;47.51;100449.94;5010091;28;20038;-83
2021/07/27 09:02:47;;;;;;;5.88;4.40;;;;;;;28.72;47.36;100462.59;5027071;28;20323;-82
2021/07/27 09:05:14;;;;;;;4.65;3.80;;;;;;;28.54;46.23;100447.13;5002466;28;20038;-84
2021/07/27 09:07:41;;;;;;;4.85;4.20;;;;;;;28.75;47.55;100454.13;4990249;28;20050;-83
2021/07/27 09:10:21;;;;;;;5.15;3.70;;;;;;;28.83;46.69;100449.63;4991046;28;20045;-85
2021/07/27 09:13:02;;;;;;;5.32;3.67;;;;;;;28.99;46.00;100443.53;4994433;28;20048;-81
2021/07/27 09:15:32;;;;;;;4.38;3.70;;;;;;;29.12;47.41;100446.75;4971770;28;20565;-82
2021/07/27 09:18:00;;;;;;;3.50;3.20;;;;;;;29.11;45.50;100450.47;4995141;28;20049;-82
2021/07/27 09:20:41;;;;;;;4.22;3.55;;;;;;;29.24;43.05;100450.06;5007380;28;20145;-82
2021/07/27 09:23:13;;;;;;;5.00;3.75;;;;;;;29.25;45.20;100449.03;5011014;28;20064;-82
2021/07/27 09:25:47;;;;;;;6.10;4.45;;;;;;;29.30;45.10;100456.75;4970763;28;20050;-81
2021/07/27 09:28:14;;;;;;;6.90;4.05;;;;;;;29.04;43.68;100464.84;4992799;28;20049;-84
2021/07/27 09:30:42;;;;;;;4.53;3.47;;;;;;;29.26;43.56;100464.38;4976686;28;20148;-83
2021/07/27 09:33:11;;;;;;;4.28;3.47;;;;;;;29.42;44.73;100467.22;4995506;28;20100;-82
2021/07/27 09:35:39;;;;;;;4.03;3.60;;;;;;;29.23;44.54;100464.69;5011386;28;20128;-82
2021/07/27 09:38:09;;;;;;;4.20;3.60;;;;;;;29.40;44.18;100471.13;5027996;28;20072;-83
2021/07/27 09:40:46;;;;;;;3.60;3.30;;;;;;;29.26;44.95;100460.78;5002800;28;20045;-81
2021/07/27 09:43:15;;;;;;;3.83;3.42;;;;;;;29.10;43.88;100458.78;4996262;28;20048;-86
2021/07/27 09:45:47;;;;;;;4.75;3.28;;;;;;;29.13;45.37;100459.31;5008768;28;20514;-81
2021/07/27 09:48:18;;;;;;;3.77;3.33;;;;;;;29.07;44.68;100470.81;5000606;28;20037;-81
2021/07/27 09:50:46;;;;;;;8.80;3.88;;;;;;;29.14;43.62;100461.03;5010845;28;20034;-84
2021/07/27 09:53:13;;;;;;;4.07;3.58;;;;;;;29.27;43.63;100470.69;4998937;28;20568;-85
2021/07/27 09:55:40;;;;;;;5.03;3.13;;;;;;;29.39;44.93;100474.84;4981379;28;20056;-82
2021/07/27 09:58:07;;;;;;;4.35;3.40;;;;;;;29.44;42.49;100473.38;4997301;28;20045;-83
2021/07/27 10:00:53;;;;;;;4.88;3.40;;;;;;;29.33;43.51;100472.75;5011786;28;20057;-80
2021/07/27 10:03:24;;;;;;;4.57;3.35;;;;;;;29.25;43.08;100470.81;4984292;28;20099;-82
2021/07/27 10:05:53;;;;;;;4.82;3.13;;;;;;;29.56;44.19;100468.56;4999424;28;20071;-84
2021/07/27 10:08:30;;;;;;;4.82;3.53;;;;;;;29.61;42.23;100468.94;4983032;28;20045;-83
2021/07/27 10:11:06;;;;;;;6.88;3.35;;;;;;;29.64;41.91;100468.63;4997818;28;20051;-82
2021/07/27 10:13:37;;;;;;;3.83;3.30;;;;;;;29.22;43.50;100470.28;4996283;28;20046;-80
2021/07/27 10:16:04;;;;;;;5.50;4.13;;;;;;;29.17;43.19;100466.16;4995395;28;20042;-83
2021/07/27 10:18:32;;;;;;;4.20;3.80;;;;;;;28.84;43.98;100464.09;4979017;28;20477;-82
2021/07/27 10:21:29;;;;;;;5.78;3.50;;;;;;;28.23;44.66;100475.56;5006937;28;20448;-86
2021/07/27 10:23:58;;;;;;;4.43;3.80;;;;;;;28.19;45.77;100476.88;4976538;28;20057;-85
2021/07/27 10:26:32;;;;;;;4.70;4.00;;;;;;;28.49;46.11;100473.03;4992505;28;20053;-83
2021/07/27 10:29:00;;;;;;;4.10;3.60;;;;;;;28.36;44.89;100470.69;5009833;28;22072;-82
2021/07/27 10:31:54;;;;;;;3.78;2.90;;;;;;;28.31;45.30;100471.13;5011773;28;22061;-83
2021/07/27 10:34:31;;;;;;;4.82;3.70;;;;;;;28.42;45.95;100467.38;5012600;28;20498;-84
2021/07/27 10:37:12;;;;;;;4.22;3.83;;;;;;;28.56;45.87;100466.84;4995036;28;20058;-87
2021/07/27 10:39:45;;;;;;;4.53;3.70;;;;;;;28.78;43.31;100462.84;5017063;28;20464;-83
2021/07/27 10:42:12;;;;;;;3.30;3.00;;;;;;;28.78;44.03;100456.56;4989320;28;20045;-83
2021/07/27 10:45:05;;;;;;;4.32;3.25;;;;;;;28.94;45.10;100464.06;4993001;28;20042;-83
2021/07/27 10:48:23;;;;;;;3.72;3.30;;;;;;;28.71;42.99;100464.47;5003158;28;20053;-81
2021/07/27 10:51:21;;;;;;;3.50;3.10;;;;;;;28.42;44.92;100461.06;5015357;28;20091;-82
2021/07/27 10:53:50;;;;;;;4.75;3.30;;;;;;;28.30;44.02;100468.56;5001912;28;20037;-81
2021/07/27 10:56:27;;;;;;;4.32;3.25;;;;;;;28.62;45.01;100464.53;5004842;28;20160;-83
2021/07/27 10:58:54;;;;;;;3.60;3.30;;;;;;;28.71;44.75;100469.06;5002053;28;20076;-83
2021/07/27 11:01:28;;;;;;;3.83;3.20;;;;;;;28.67;44.76;100463.09;5009978;28;20049;-84
2021/07/27 11:04:07;;;;;;;3.92;3.47;;;;;;;28.35;44.43;100462.69;4993472;28;20042;-84
2021/07/27 11:06:34;;;;;;;4.32;3.35;;;;;;;28.33;45.70;100470.97;4994558;28;20091;-83
2021/07/27 11:09:00;;;;;;;5.03;3.55;;;;;;;28.83;45.87;100463.22;4995619;28;20099;-83
2021/07/27 11:11:27;;;;;;;4.20;3.20;;;;;;;29.06;42.80;100458.22;4996459;28;20440;-83
2021/07/27 11:14:00;;;;;;;4.00;3.63;;;;;;;29.09;42.49;100463.38;4993475;28;20494;-86
2021/07/27 11:16:27;;;;;;;38.10;6.82;;;;;;;29.11;42.12;100461.34;4994468;28;20092;-87
2021/07/27 11:18:53;;;;;;;3.90;3.25;;;;;;;28.54;41.73;100463.44;4993241;28;20128;-84
2021/07/27 11:21:20;;;;;;;5.03;3.65;;;;;;;28.20;42.18;100457.72;4978807;28;20521;-84
2021/07/27 11:23:47;;;;;;;4.47;3.33;;;;;;;28.18;44.27;100467.88;4975993;28;20438;-82
2021/07/27 11:26:14;;;;;;;4.93;3.40;;;;;;;27.95;44.01;100466.53;4993154;28;20113;-82
2021/07/27 11:28:44;;;;;;;3.92;3.38;;;;;;;27.76;44.44;100467.44;4984060;28;20037;-83
2021/07/27 11:31:20;;;;;;;4.78;3.25;;;;;;;28.00;46.22;100465.09;5002071;28;20049;-82
2021/07/27 11:33:51;;;;;;;4.60;3.33;;;;;;;28.37;45.30;100466.97;5005274;28;20449;-80
2021/07/27 11:36:24;;;;;;;4.28;3.63;;;;;;;28.65;43.85;100461.50;5011261;28;20052;-80
2021/07/27 11:39:02;;;;;;;;;;;;;;;28.95;43.02;100457.63;4979934;28;20048;-83
2021/07/27 11:41:29;;;;;;;4.25;2.95;;;;;;;29.19;41.97;100454.28;4989326;28;19929;-80